OAL463 WSSS-KEWR
Flight info
| Callsign | OAL463 |
|---|---|
| Flight time | N/A |
| Altitude | 29000 |
| Route | TOMAN/N0521F270 L625 AKMON/K0963F270 L625 ANOKI/N0517F270 L625 ALDIS/N0514F310 L625 MEVIN B462 KAZIK Y59 AZAMA Y57 IGMIS/N0502F330 Y57 POROT A590 PUGAL/N0494F340 A590 POWAL/N0490F330 DCT CURVS/N0488F350 DCT CDB DCT 55N160W 55N150W 53N140W/N0482F370 DCT MANJO DCT DUGGS DCT 53N122W DCT URPUX Q949 ELLKS Q862 YEGGA Q819 TAGOT Q908 MUTUR/N0489F390 Q908 KOBID Q831 AGLIN DCT SSM Q917 PEPLA Q140 AHPAH DCT GEE |
| Aircraft | B77L/H-SDE1E2E3FGHIJ2J3J4J5M1RWXY/LB1D1 |
Departure
| Time | 2026-05-07 13:16 |
|---|---|
| Airport | Singapore Changi Airport (WSSS) |
Arrival
| Time | N/A |
|---|---|
| Airport | Newark Liberty International Airport (KEWR) |
| Time | Latitude | Longitude | Altitude | Speed | Heading |
|---|---|---|---|---|---|
| 2026-05-07 12:55 | 1.35862 | 103.99167 | 29 ft | 0 kts | 293° |
| 2026-05-07 13:08 | 1.35858 | 103.99176 | 29 ft | 3 kts | 293° |
| 2026-05-07 13:08 | 1.35851 | 103.99194 | 29 ft | 3 kts | 293° |
| 2026-05-07 13:08 | 1.35842 | 103.99210 | 29 ft | 3 kts | 325° |
| 2026-05-07 13:08 | 1.35824 | 103.99217 | 29 ft | 3 kts | 9° |
| 2026-05-07 13:09 | 1.35817 | 103.99216 | 29 ft | 0 kts | 18° |
| 2026-05-07 13:10 | 1.35818 | 103.99216 | 29 ft | 0 kts | 18° |
| 2026-05-07 13:10 | 1.35842 | 103.99229 | 29 ft | 9 kts | 28° |
| 2026-05-07 13:11 | 1.35926 | 103.99278 | 29 ft | 15 kts | 30° |
| 2026-05-07 13:11 | 1.36021 | 103.99326 | 29 ft | 15 kts | 20° |
| 2026-05-07 13:11 | 1.36090 | 103.99351 | 29 ft | 15 kts | 20° |
| 2026-05-07 13:11 | 1.36220 | 103.99406 | 28 ft | 15 kts | 24° |
| 2026-05-07 13:12 | 1.36303 | 103.99472 | 29 ft | 15 kts | 51° |
| 2026-05-07 13:12 | 1.36336 | 103.99533 | 29 ft | 15 kts | 82° |
| 2026-05-07 13:12 | 1.36281 | 103.99666 | 29 ft | 15 kts | 114° |
| 2026-05-07 13:12 | 1.36249 | 103.99737 | 30 ft | 0 kts | 114° |
| 2026-05-07 13:13 | 1.36212 | 103.99823 | 30 ft | 8 kts | 114° |
| 2026-05-07 13:13 | 1.36178 | 103.99863 | 30 ft | 8 kts | 145° |
| 2026-05-07 13:14 | 1.36124 | 103.99869 | 30 ft | 8 kts | 191° |
| 2026-05-07 13:14 | 1.36100 | 103.99859 | 30 ft | 0 kts | 202° |
| 2026-05-07 13:15 | 1.36084 | 103.99853 | 30 ft | 12 kts | 202° |
| 2026-05-07 13:15 | 1.35793 | 103.99730 | 32 ft | 82 kts | 203° |
| 2026-05-07 13:15 | 1.35335 | 103.99534 | 34 ft | 129 kts | 203° |
| 2026-05-07 13:16 | 1.33904 | 103.98928 | 41 ft | 203 kts | 202° |
| 2026-05-07 13:16 | 1.32562 | 103.98372 | 450 ft | 208 kts | 202° |
| 2026-05-07 13:16 | 1.31262 | 103.97801 | 1164 ft | 204 kts | 204° |
| 2026-05-07 13:16 | 1.29919 | 103.97219 | 1438 ft | 211 kts | 202° |
| 2026-05-07 13:17 | 1.28555 | 103.96650 | 1863 ft | 215 kts | 202° |
| 2026-05-07 13:17 | 1.27152 | 103.96066 | 2252 ft | 222 kts | 202° |
| 2026-05-07 13:17 | 1.25698 | 103.95459 | 2639 ft | 230 kts | 202° |
| 2026-05-07 13:17 | 1.24179 | 103.94866 | 3002 ft | 238 kts | 192° |
| 2026-05-07 13:18 | 1.22529 | 103.94952 | 3289 ft | 245 kts | 155° |
| 2026-05-07 13:18 | 1.21144 | 103.95966 | 3618 ft | 253 kts | 136° |
| 2026-05-07 13:18 | 1.19821 | 103.97169 | 4100 ft | 259 kts | 138° |
| 2026-05-07 13:18 | 1.18462 | 103.98370 | 4704 ft | 262 kts | 139° |
| 2026-05-07 13:19 | 1.17072 | 103.99592 | 5210 ft | 271 kts | 139° |
| 2026-05-07 13:19 | 1.15630 | 104.00853 | 5657 ft | 280 kts | 139° |
| 2026-05-07 13:19 | 1.14300 | 104.02280 | 6072 ft | 285 kts | 119° |
| 2026-05-07 13:19 | 1.13672 | 104.04165 | 6531 ft | 292 kts | 93° |
| 2026-05-07 13:20 | 1.13797 | 104.06208 | 7026 ft | 299 kts | 82° |
| 2026-05-07 13:20 | 1.14126 | 104.08298 | 7479 ft | 309 kts | 81° |
| 2026-05-07 13:20 | 1.14364 | 104.09710 | 7846 ft | 312 kts | 81° |
| 2026-05-07 13:20 | 1.14851 | 104.12561 | 8684 ft | 316 kts | 80° |
| 2026-05-07 13:21 | 1.15104 | 104.14030 | 9049 ft | 321 kts | 80° |
| 2026-05-07 13:21 | 1.15613 | 104.16981 | 9724 ft | 328 kts | 80° |
| 2026-05-07 13:21 | 1.16007 | 104.19253 | 10255 ft | 334 kts | 80° |
| 2026-05-07 13:21 | 1.16407 | 104.21547 | 10828 ft | 337 kts | 80° |
| 2026-05-07 13:22 | 1.16812 | 104.23863 | 11466 ft | 338 kts | 80° |
| 2026-05-07 13:22 | 1.17216 | 104.26193 | 12003 ft | 343 kts | 80° |
| 2026-05-07 13:22 | 1.17624 | 104.28571 | 12379 ft | 353 kts | 80° |
| 2026-05-07 13:22 | 1.18045 | 104.31032 | 12652 ft | 366 kts | 80° |
| 2026-05-07 13:23 | 1.18480 | 104.33577 | 12971 ft | 377 kts | 80° |
| 2026-05-07 13:23 | 1.18972 | 104.36175 | 13352 ft | 385 kts | 76° |
| 2026-05-07 13:23 | 1.19668 | 104.38802 | 13686 ft | 395 kts | 73° |
| 2026-05-07 13:23 | 1.20457 | 104.41450 | 14139 ft | 400 kts | 73° |
| 2026-05-07 13:24 | 1.21267 | 104.44120 | 14690 ft | 403 kts | 73° |
| 2026-05-07 13:24 | 1.21802 | 104.45898 | 15074 ft | 404 kts | 73° |
| 2026-05-07 13:24 | 1.22867 | 104.49517 | 15799 ft | 407 kts | 73° |
| 2026-05-07 13:24 | 1.23653 | 104.52236 | 16307 ft | 410 kts | 74° |
| 2026-05-07 13:25 | 1.24174 | 104.54051 | 16630 ft | 412 kts | 74° |
| 2026-05-07 13:25 | 1.24962 | 104.56813 | 17097 ft | 415 kts | 74° |
| 2026-05-07 13:25 | 1.25753 | 104.59596 | 17557 ft | 418 kts | 74° |
| 2026-05-07 13:25 | 1.26549 | 104.62405 | 18014 ft | 420 kts | 74° |
| 2026-05-07 13:26 | 1.27349 | 104.65224 | 18480 ft | 423 kts | 74° |
| 2026-05-07 13:26 | 1.28151 | 104.68048 | 18894 ft | 426 kts | 74° |
| 2026-05-07 13:26 | 1.28962 | 104.70905 | 19297 ft | 429 kts | 74° |
| 2026-05-07 13:26 | 1.29779 | 104.73780 | 19716 ft | 431 kts | 74° |
| 2026-05-07 13:27 | 1.30601 | 104.76672 | 20111 ft | 434 kts | 74° |
| 2026-05-07 13:27 | 1.31431 | 104.79589 | 20499 ft | 437 kts | 74° |
| 2026-05-07 13:27 | 1.32261 | 104.82511 | 20864 ft | 439 kts | 74° |
| 2026-05-07 13:27 | 1.33098 | 104.85458 | 21218 ft | 442 kts | 74° |
| 2026-05-07 13:28 | 1.33827 | 104.88451 | 21573 ft | 445 kts | 79° |
| 2026-05-07 13:28 | 1.34258 | 104.91510 | 21933 ft | 447 kts | 85° |
| 2026-05-07 13:28 | 1.34376 | 104.94582 | 22258 ft | 449 kts | 89° |
| 2026-05-07 13:28 | 1.34428 | 104.97710 | 22566 ft | 452 kts | 89° |
| 2026-05-07 13:29 | 1.34481 | 105.00849 | 22866 ft | 454 kts | 89° |
| 2026-05-07 13:29 | 1.34538 | 105.04013 | 23159 ft | 456 kts | 89° |
| 2026-05-07 13:29 | 1.34603 | 105.07190 | 23483 ft | 458 kts | 88° |
| 2026-05-07 13:29 | 1.34674 | 105.10381 | 23784 ft | 460 kts | 88° |
| 2026-05-07 13:30 | 1.34747 | 105.13585 | 24064 ft | 462 kts | 88° |
| 2026-05-07 13:30 | 1.34824 | 105.16805 | 24335 ft | 464 kts | 88° |
| 2026-05-07 13:30 | 1.34902 | 105.20040 | 24607 ft | 466 kts | 88° |
| 2026-05-07 13:30 | 1.34979 | 105.23286 | 24880 ft | 468 kts | 88° |
| 2026-05-07 13:31 | 1.35058 | 105.26545 | 25149 ft | 470 kts | 88° |
| 2026-05-07 13:31 | 1.35137 | 105.29815 | 25402 ft | 472 kts | 88° |
| 2026-05-07 13:31 | 1.35217 | 105.33099 | 25658 ft | 473 kts | 88° |
| 2026-05-07 13:31 | 1.35295 | 105.36395 | 25912 ft | 475 kts | 88° |
| 2026-05-07 13:32 | 1.35374 | 105.39705 | 26163 ft | 477 kts | 88° |
| 2026-05-07 13:32 | 1.35454 | 105.43024 | 26399 ft | 479 kts | 88° |
| 2026-05-07 13:32 | 1.35533 | 105.46355 | 26641 ft | 480 kts | 89° |
| 2026-05-07 13:32 | 1.35612 | 105.49705 | 26871 ft | 482 kts | 89° |
| 2026-05-07 13:33 | 1.35691 | 105.53059 | 27090 ft | 484 kts | 89° |
| 2026-05-07 13:33 | 1.35770 | 105.56425 | 27326 ft | 485 kts | 89° |
| 2026-05-07 13:33 | 1.35850 | 105.59793 | 27548 ft | 487 kts | 89° |
| 2026-05-07 13:33 | 1.35930 | 105.63180 | 27762 ft | 488 kts | 89° |
| 2026-05-07 13:34 | 1.36012 | 105.66576 | 27965 ft | 490 kts | 89° |
| 2026-05-07 13:34 | 1.36290 | 105.73334 | 28280 ft | 491 kts | 80° |
| 2026-05-07 13:34 | 1.37327 | 105.76594 | 28301 ft | 495 kts | 62° |
| 2026-05-07 13:35 | 1.39279 | 105.79418 | 28462 ft | 497 kts | 48° |
| 2026-05-07 13:35 | 1.41826 | 105.81750 | 28679 ft | 498 kts | 36° |
| 2026-05-07 13:35 | 1.44836 | 105.83496 | 28766 ft | 501 kts | 28° |
| 2026-05-07 13:36 | 1.51112 | 105.86587 | 28849 ft | 505 kts | 27° |
| 2026-05-07 13:36 | 1.57380 | 105.89707 | 28850 ft | 501 kts | 28° |
| 2026-05-07 13:37 | 1.63566 | 105.92883 | 28851 ft | 499 kts | 28° |
| 2026-05-07 13:37 | 1.69724 | 105.96075 | 28852 ft | 498 kts | 28° |
| 2026-05-07 13:38 | 1.75891 | 105.99273 | 28855 ft | 499 kts | 28° |
| 2026-05-07 13:38 | 1.82061 | 106.02467 | 28854 ft | 500 kts | 28° |
| 2026-05-07 13:39 | 1.88255 | 106.05671 | 28855 ft | 502 kts | 28° |
| 2026-05-07 13:39 | 1.94464 | 106.08884 | 28853 ft | 503 kts | 28° |
| 2026-05-07 13:40 | 2.00682 | 106.12101 | 28852 ft | 503 kts | 28° |
| 2026-05-07 13:40 | 2.06860 | 106.15299 | 28851 ft | 503 kts | 28° |
| 2026-05-07 13:41 | 2.13079 | 106.18518 | 28852 ft | 503 kts | 28° |
| 2026-05-07 13:41 | 2.19298 | 106.21735 | 28850 ft | 503 kts | 28° |
| 2026-05-07 13:42 | 2.25507 | 106.24954 | 28852 ft | 502 kts | 28° |
| 2026-05-07 13:42 | 2.31702 | 106.28163 | 28860 ft | 502 kts | 28° |
| 2026-05-07 13:43 | 2.37901 | 106.31373 | 28871 ft | 502 kts | 28° |
| 2026-05-07 13:43 | 2.44101 | 106.34584 | 28870 ft | 502 kts | 28° |
| 2026-05-07 13:44 | 2.50300 | 106.37796 | 28868 ft | 502 kts | 28° |
| 2026-05-07 13:44 | 2.56500 | 106.41010 | 28861 ft | 502 kts | 28° |
| 2026-05-07 13:45 | 2.62703 | 106.44227 | 28861 ft | 502 kts | 28° |
| 2026-05-07 13:45 | 2.68904 | 106.47446 | 28861 ft | 502 kts | 28° |
| 2026-05-07 13:46 | 2.75071 | 106.50647 | 28861 ft | 502 kts | 28° |
| 2026-05-07 13:46 | 2.81283 | 106.53844 | 28861 ft | 503 kts | 28° |
| 2026-05-07 13:47 | 2.87508 | 106.57053 | 28852 ft | 503 kts | 28° |
| 2026-05-07 13:47 | 2.93730 | 106.60271 | 28852 ft | 503 kts | 28° |
| 2026-05-07 13:48 | 2.99956 | 106.63495 | 28851 ft | 503 kts | 28° |
| 2026-05-07 13:48 | 3.06164 | 106.66713 | 28851 ft | 503 kts | 28° |
| 2026-05-07 13:49 | 3.12374 | 106.69933 | 28852 ft | 503 kts | 28° |
| 2026-05-07 13:49 | 3.18594 | 106.73155 | 28852 ft | 503 kts | 28° |
| 2026-05-07 13:50 | 3.24794 | 106.76368 | 28852 ft | 503 kts | 28° |
| 2026-05-07 13:50 | 3.29951 | 106.79040 | 28852 ft | 503 kts | 28° |
| 2026-05-07 13:51 | 3.37212 | 106.82804 | 28853 ft | 503 kts | 28° |
| 2026-05-07 13:51 | 3.43393 | 106.86007 | 28852 ft | 503 kts | 28° |
| 2026-05-07 13:52 | 3.49619 | 106.89238 | 28854 ft | 504 kts | 28° |
| 2026-05-07 13:52 | 3.55834 | 106.92492 | 28840 ft | 504 kts | 30° |
| 2026-05-07 13:53 | 3.61643 | 106.96400 | 28852 ft | 503 kts | 36° |
| 2026-05-07 13:53 | 3.67340 | 107.00489 | 28844 ft | 503 kts | 36° |
| 2026-05-07 13:54 | 3.73045 | 107.04555 | 28838 ft | 504 kts | 36° |
| 2026-05-07 13:54 | 3.78764 | 107.08603 | 28847 ft | 503 kts | 36° |
| 2026-05-07 13:55 | 3.84488 | 107.12643 | 28843 ft | 503 kts | 36° |
| 2026-05-07 13:55 | 3.90207 | 107.16680 | 28840 ft | 503 kts | 36° |
| 2026-05-07 13:56 | 3.95927 | 107.20720 | 28847 ft | 503 kts | 36° |
| 2026-05-07 13:56 | 4.01647 | 107.24763 | 28842 ft | 503 kts | 36° |
| 2026-05-07 13:57 | 4.07366 | 107.28805 | 28842 ft | 503 kts | 36° |
| 2026-05-07 13:57 | 4.13081 | 107.32845 | 28835 ft | 503 kts | 36° |
| 2026-05-07 13:58 | 4.18800 | 107.36887 | 28848 ft | 503 kts | 36° |
| 2026-05-07 13:58 | 4.24519 | 107.40934 | 28843 ft | 503 kts | 36° |
| 2026-05-07 13:59 | 4.30237 | 107.44979 | 28847 ft | 503 kts | 36° |
| 2026-05-07 13:59 | 4.35960 | 107.49026 | 28847 ft | 504 kts | 36° |
| 2026-05-07 14:00 | 4.41685 | 107.53077 | 28854 ft | 504 kts | 36° |
| 2026-05-07 14:00 | 4.47410 | 107.57127 | 28851 ft | 504 kts | 36° |
| 2026-05-07 14:01 | 4.53136 | 107.61181 | 28852 ft | 504 kts | 36° |
| 2026-05-07 14:01 | 4.58863 | 107.65238 | 28850 ft | 504 kts | 36° |
| 2026-05-07 14:02 | 4.64553 | 107.69267 | 28839 ft | 504 kts | 36° |
| 2026-05-07 14:02 | 4.70282 | 107.73325 | 28843 ft | 504 kts | 36° |
| 2026-05-07 14:03 | 4.76046 | 107.77408 | 28841 ft | 504 kts | 36° |
| 2026-05-07 14:03 | 4.81729 | 107.81437 | 28841 ft | 504 kts | 36° |
| 2026-05-07 14:04 | 4.87447 | 107.85487 | 28836 ft | 504 kts | 36° |
| 2026-05-07 14:04 | 4.93171 | 107.89548 | 28847 ft | 504 kts | 36° |
| 2026-05-07 14:05 | 4.98896 | 107.93608 | 28849 ft | 504 kts | 36° |
| 2026-05-07 14:05 | 5.04641 | 107.97651 | 28853 ft | 504 kts | 36° |
| 2026-05-07 14:06 | 5.10394 | 108.01682 | 28851 ft | 504 kts | 36° |
| 2026-05-07 14:06 | 5.16149 | 108.05718 | 28852 ft | 505 kts | 36° |
| 2026-05-07 14:07 | 5.21904 | 108.09757 | 28851 ft | 505 kts | 36° |
| 2026-05-07 14:07 | 5.27651 | 108.13802 | 28852 ft | 505 kts | 36° |
| 2026-05-07 14:08 | 5.33401 | 108.17846 | 28852 ft | 505 kts | 36° |
| 2026-05-07 14:08 | 5.39158 | 108.21890 | 28851 ft | 505 kts | 36° |
| 2026-05-07 14:09 | 5.44913 | 108.25939 | 28852 ft | 505 kts | 36° |
| 2026-05-07 14:09 | 5.49703 | 108.29309 | 28851 ft | 505 kts | 36° |
| 2026-05-07 14:10 | 5.56455 | 108.34060 | 29029 ft | 509 kts | 36° |
| 2026-05-07 14:10 | 5.59348 | 108.36091 | 29341 ft | 507 kts | 36° |
| 2026-05-07 14:10 | 5.62226 | 108.38115 | 29637 ft | 505 kts | 36° |
| 2026-05-07 14:10 | 5.64133 | 108.39458 | 29812 ft | 505 kts | 36° |
| 2026-05-07 14:11 | 5.67978 | 108.42168 | 30143 ft | 505 kts | 36° |
| 2026-05-07 14:11 | 5.69881 | 108.43509 | 30312 ft | 505 kts | 36° |
| 2026-05-07 14:11 | 5.72756 | 108.45530 | 30591 ft | 503 kts | 36° |
| 2026-05-07 14:11 | 5.76587 | 108.48230 | 30798 ft | 504 kts | 36° |
| 2026-05-07 14:12 | 5.78490 | 108.49572 | 30816 ft | 504 kts | 36° |
| 2026-05-07 14:12 | 5.84224 | 108.53613 | 30852 ft | 503 kts | 36° |
| 2026-05-07 14:13 | 5.89948 | 108.57647 | 30862 ft | 502 kts | 36° |
| 2026-05-07 14:13 | 5.96577 | 108.62318 | 30861 ft | 500 kts | 36° |
| 2026-05-07 14:14 | 6.01352 | 108.65682 | 30860 ft | 500 kts | 36° |
| 2026-05-07 14:14 | 6.07047 | 108.69696 | 30863 ft | 500 kts | 36° |
| 2026-05-07 14:15 | 6.12702 | 108.73688 | 30859 ft | 500 kts | 36° |
| 2026-05-07 14:15 | 6.18397 | 108.77706 | 30862 ft | 500 kts | 36° |
| 2026-05-07 14:16 | 6.24101 | 108.81731 | 30863 ft | 501 kts | 36° |
| 2026-05-07 14:16 | 6.29807 | 108.85758 | 30865 ft | 502 kts | 36° |
| 2026-05-07 14:17 | 6.35525 | 108.89797 | 30863 ft | 502 kts | 36° |
| 2026-05-07 14:17 | 6.41241 | 108.93835 | 30862 ft | 502 kts | 36° |
| 2026-05-07 14:18 | 6.46967 | 108.97881 | 30862 ft | 502 kts | 36° |
| 2026-05-07 14:18 | 6.52689 | 109.01925 | 30861 ft | 502 kts | 36° |
| 2026-05-07 14:19 | 6.58400 | 109.05962 | 30862 ft | 502 kts | 36° |
| 2026-05-07 14:19 | 6.64114 | 109.09999 | 30860 ft | 501 kts | 36° |
| 2026-05-07 14:20 | 6.69818 | 109.14036 | 30861 ft | 501 kts | 36° |
| 2026-05-07 14:20 | 6.75521 | 109.18070 | 30868 ft | 501 kts | 36° |
| 2026-05-07 14:21 | 6.81210 | 109.22099 | 30873 ft | 500 kts | 36° |
| 2026-05-07 14:21 | 6.86901 | 109.26125 | 30864 ft | 500 kts | 36° |
| 2026-05-07 14:22 | 6.92582 | 109.30152 | 30859 ft | 499 kts | 36° |
| 2026-05-07 14:22 | 6.98266 | 109.34180 | 30859 ft | 500 kts | 36° |
| 2026-05-07 14:23 | 7.03957 | 109.38211 | 30863 ft | 500 kts | 36° |
| 2026-05-07 14:23 | 7.09646 | 109.42243 | 30863 ft | 500 kts | 36° |
| 2026-05-07 14:24 | 7.15329 | 109.46278 | 30862 ft | 500 kts | 36° |
| 2026-05-07 14:24 | 7.21019 | 109.50309 | 30860 ft | 500 kts | 36° |
| 2026-05-07 14:25 | 7.26667 | 109.54316 | 30864 ft | 501 kts | 36° |
| 2026-05-07 14:25 | 7.32407 | 109.58386 | 30861 ft | 501 kts | 36° |
| 2026-05-07 14:26 | 7.38070 | 109.62407 | 30862 ft | 501 kts | 36° |
| 2026-05-07 14:26 | 7.43760 | 109.66450 | 30861 ft | 500 kts | 36° |
| 2026-05-07 14:27 | 7.49449 | 109.70491 | 30860 ft | 500 kts | 36° |
| 2026-05-07 14:27 | 7.55134 | 109.74528 | 30859 ft | 500 kts | 36° |
| 2026-05-07 14:28 | 7.60806 | 109.78565 | 30874 ft | 499 kts | 36° |
| 2026-05-07 14:28 | 7.66479 | 109.82601 | 30881 ft | 499 kts | 36° |
| 2026-05-07 14:29 | 7.72144 | 109.86630 | 30881 ft | 498 kts | 36° |
| 2026-05-07 14:29 | 7.77812 | 109.90661 | 30880 ft | 498 kts | 36° |
| 2026-05-07 14:30 | 7.83485 | 109.94699 | 30876 ft | 499 kts | 36° |
| 2026-05-07 14:30 | 7.89157 | 109.98738 | 30882 ft | 499 kts | 36° |
| 2026-05-07 14:31 | 7.94824 | 110.02776 | 30878 ft | 499 kts | 36° |
| 2026-05-07 14:31 | 8.00492 | 110.06817 | 30876 ft | 499 kts | 36° |
| 2026-05-07 14:32 | 8.06128 | 110.10831 | 30878 ft | 499 kts | 36° |
| 2026-05-07 14:32 | 8.11808 | 110.14883 | 30882 ft | 499 kts | 36° |
| 2026-05-07 14:33 | 8.17477 | 110.18928 | 30899 ft | 499 kts | 36° |
| 2026-05-07 14:33 | 8.23151 | 110.22979 | 30896 ft | 499 kts | 36° |
| 2026-05-07 14:34 | 8.28806 | 110.27043 | 30884 ft | 499 kts | 36° |
| 2026-05-07 14:34 | 8.34466 | 110.31126 | 30897 ft | 500 kts | 36° |
| 2026-05-07 14:35 | 8.40119 | 110.35202 | 30895 ft | 499 kts | 36° |
| 2026-05-07 14:35 | 8.45767 | 110.39273 | 30881 ft | 499 kts | 36° |
| 2026-05-07 14:36 | 8.51413 | 110.43345 | 30891 ft | 499 kts | 36° |
| 2026-05-07 14:36 | 8.57059 | 110.47416 | 30897 ft | 498 kts | 36° |
| 2026-05-07 14:37 | 8.62698 | 110.51488 | 30882 ft | 498 kts | 36° |
| 2026-05-07 14:37 | 8.71155 | 110.57588 | 30883 ft | 498 kts | 36° |
| 2026-05-07 14:38 | 8.76793 | 110.61665 | 30882 ft | 498 kts | 36° |
| 2026-05-07 14:38 | 8.82434 | 110.65741 | 30899 ft | 498 kts | 36° |
| 2026-05-07 14:39 | 8.88081 | 110.69821 | 30896 ft | 499 kts | 36° |
| 2026-05-07 14:39 | 8.93692 | 110.73878 | 30877 ft | 499 kts | 36° |
| 2026-05-07 14:40 | 8.99339 | 110.77961 | 30896 ft | 499 kts | 36° |
| 2026-05-07 14:40 | 9.04981 | 110.82048 | 30896 ft | 498 kts | 36° |
| 2026-05-07 14:41 | 9.10619 | 110.86125 | 30878 ft | 498 kts | 36° |
| 2026-05-07 14:41 | 9.16266 | 110.90215 | 30882 ft | 499 kts | 36° |
| 2026-05-07 14:42 | 9.21909 | 110.94303 | 30898 ft | 499 kts | 36° |
| 2026-05-07 14:42 | 9.27552 | 110.98395 | 30899 ft | 499 kts | 36° |
| 2026-05-07 14:43 | 9.33196 | 111.02488 | 30883 ft | 499 kts | 36° |
| 2026-05-07 14:43 | 9.38834 | 111.06579 | 30882 ft | 498 kts | 36° |
| 2026-05-07 14:44 | 9.44472 | 111.10670 | 30898 ft | 498 kts | 36° |
| 2026-05-07 14:44 | 9.50108 | 111.14760 | 30879 ft | 498 kts | 36° |
| 2026-05-07 14:45 | 9.55745 | 111.18857 | 30883 ft | 499 kts | 36° |
| 2026-05-07 14:45 | 9.61378 | 111.22953 | 30896 ft | 498 kts | 36° |
| 2026-05-07 14:46 | 9.66980 | 111.27024 | 30897 ft | 499 kts | 36° |
| 2026-05-07 14:46 | 9.72617 | 111.31125 | 30896 ft | 499 kts | 36° |
| 2026-05-07 14:47 | 9.78249 | 111.35226 | 30896 ft | 498 kts | 36° |
| 2026-05-07 14:47 | 9.83876 | 111.39326 | 30883 ft | 498 kts | 36° |
| 2026-05-07 14:48 | 9.89503 | 111.43426 | 30899 ft | 498 kts | 36° |
| 2026-05-07 14:48 | 9.95124 | 111.47525 | 30898 ft | 498 kts | 36° |
| 2026-05-07 14:49 | 10.00752 | 111.51628 | 30898 ft | 498 kts | 36° |
| 2026-05-07 14:49 | 10.06378 | 111.55733 | 30899 ft | 498 kts | 36° |
| 2026-05-07 14:50 | 10.12009 | 111.59844 | 30898 ft | 498 kts | 36° |
| 2026-05-07 14:50 | 10.17632 | 111.63955 | 30899 ft | 499 kts | 36° |
| 2026-05-07 14:51 | 10.23267 | 111.68069 | 30899 ft | 499 kts | 36° |
| 2026-05-07 14:51 | 10.27954 | 111.71490 | 30896 ft | 499 kts | 36° |
| 2026-05-07 14:52 | 10.34533 | 111.76305 | 30903 ft | 499 kts | 36° |
| 2026-05-07 14:52 | 10.40172 | 111.80430 | 30882 ft | 499 kts | 36° |
| 2026-05-07 14:53 | 10.45803 | 111.84551 | 30901 ft | 499 kts | 36° |
| 2026-05-07 14:53 | 10.51431 | 111.88673 | 30897 ft | 499 kts | 36° |
| 2026-05-07 14:54 | 10.57057 | 111.92794 | 30898 ft | 498 kts | 36° |
| 2026-05-07 14:54 | 10.61732 | 111.96221 | 30898 ft | 499 kts | 36° |
| 2026-05-07 14:55 | 10.68307 | 112.01042 | 30898 ft | 498 kts | 36° |
| 2026-05-07 14:55 | 10.73926 | 112.05166 | 30898 ft | 498 kts | 36° |
| 2026-05-07 14:56 | 10.78596 | 112.08592 | 30898 ft | 498 kts | 35° |
| 2026-05-07 14:56 | 10.84214 | 112.12718 | 30898 ft | 498 kts | 35° |
| 2026-05-07 14:57 | 10.89826 | 112.16845 | 30899 ft | 498 kts | 35° |
| 2026-05-07 14:57 | 10.95443 | 112.20968 | 30899 ft | 498 kts | 35° |
| 2026-05-07 14:58 | 11.01068 | 112.25081 | 30898 ft | 498 kts | 35° |
| 2026-05-07 14:58 | 11.06703 | 112.29184 | 30900 ft | 498 kts | 35° |
| 2026-05-07 14:59 | 11.12332 | 112.33289 | 30899 ft | 498 kts | 35° |
| 2026-05-07 14:59 | 11.17932 | 112.37379 | 30885 ft | 499 kts | 35° |
| 2026-05-07 15:00 | 11.23561 | 112.41496 | 30895 ft | 498 kts | 35° |
| 2026-05-07 15:00 | 11.29195 | 112.45615 | 30883 ft | 498 kts | 35° |
| 2026-05-07 15:01 | 11.34824 | 112.49734 | 30881 ft | 498 kts | 35° |
| 2026-05-07 15:01 | 11.40452 | 112.53855 | 30899 ft | 498 kts | 35° |
| 2026-05-07 15:02 | 11.46091 | 112.57984 | 30883 ft | 498 kts | 35° |
| 2026-05-07 15:02 | 11.51716 | 112.62116 | 30883 ft | 498 kts | 35° |
| 2026-05-07 15:03 | 11.57334 | 112.66260 | 30898 ft | 498 kts | 35° |
| 2026-05-07 15:03 | 11.62948 | 112.70405 | 30886 ft | 498 kts | 35° |
| 2026-05-07 15:04 | 11.68566 | 112.74548 | 30882 ft | 498 kts | 35° |
| 2026-05-07 15:04 | 11.74182 | 112.78688 | 30898 ft | 498 kts | 35° |
| 2026-05-07 15:05 | 11.79793 | 112.82839 | 30881 ft | 498 kts | 35° |
| 2026-05-07 15:05 | 11.85414 | 112.86993 | 30883 ft | 498 kts | 35° |
| 2026-05-07 15:06 | 11.91020 | 112.91137 | 30897 ft | 497 kts | 35° |
| 2026-05-07 15:06 | 11.96624 | 112.95283 | 30899 ft | 498 kts | 35° |
| 2026-05-07 15:07 | 12.02236 | 112.99438 | 30881 ft | 497 kts | 35° |
| 2026-05-07 15:07 | 12.07842 | 113.03588 | 30907 ft | 497 kts | 35° |
| 2026-05-07 15:08 | 12.13445 | 113.07740 | 30908 ft | 497 kts | 35° |
| 2026-05-07 15:08 | 12.19047 | 113.11894 | 30906 ft | 497 kts | 35° |
| 2026-05-07 15:09 | 12.24646 | 113.16048 | 30907 ft | 497 kts | 35° |
| 2026-05-07 15:09 | 12.30245 | 113.20205 | 30907 ft | 497 kts | 35° |
| 2026-05-07 15:10 | 12.35858 | 113.24373 | 30908 ft | 498 kts | 35° |
| 2026-05-07 15:10 | 12.41468 | 113.28535 | 30906 ft | 498 kts | 35° |
| 2026-05-07 15:11 | 12.47073 | 113.32688 | 30908 ft | 497 kts | 35° |
| 2026-05-07 15:11 | 12.52674 | 113.36841 | 30908 ft | 497 kts | 35° |
| 2026-05-07 15:12 | 12.58265 | 113.40993 | 30906 ft | 497 kts | 35° |
| 2026-05-07 15:12 | 12.63826 | 113.45123 | 30916 ft | 496 kts | 35° |
| 2026-05-07 15:13 | 12.69411 | 113.49275 | 30927 ft | 496 kts | 35° |
| 2026-05-07 15:13 | 12.74994 | 113.53430 | 30922 ft | 496 kts | 35° |
| 2026-05-07 15:14 | 12.80577 | 113.57583 | 30926 ft | 496 kts | 35° |
| 2026-05-07 15:14 | 12.86164 | 113.61742 | 30924 ft | 497 kts | 35° |
| 2026-05-07 15:15 | 12.91755 | 113.65908 | 30926 ft | 497 kts | 35° |
| 2026-05-07 15:15 | 12.97346 | 113.70077 | 30926 ft | 497 kts | 35° |
| 2026-05-07 15:16 | 13.02937 | 113.74246 | 30926 ft | 497 kts | 35° |
| 2026-05-07 15:16 | 13.08534 | 113.78423 | 30927 ft | 497 kts | 35° |
| 2026-05-07 15:17 | 13.14124 | 113.82597 | 30926 ft | 497 kts | 35° |
| 2026-05-07 15:17 | 13.19711 | 113.86772 | 30926 ft | 497 kts | 35° |
| 2026-05-07 15:18 | 13.25301 | 113.90950 | 30927 ft | 496 kts | 35° |
| 2026-05-07 15:18 | 13.30885 | 113.95126 | 30926 ft | 497 kts | 35° |
| 2026-05-07 15:19 | 13.36432 | 113.99281 | 30917 ft | 497 kts | 35° |
| 2026-05-07 15:19 | 13.42054 | 114.03487 | 30916 ft | 497 kts | 35° |
| 2026-05-07 15:20 | 13.47599 | 114.07643 | 30914 ft | 496 kts | 36° |
| 2026-05-07 15:20 | 13.53172 | 114.11821 | 30917 ft | 496 kts | 36° |
| 2026-05-07 15:21 | 13.58735 | 114.15995 | 30917 ft | 495 kts | 36° |
| 2026-05-07 15:21 | 13.64301 | 114.20175 | 30916 ft | 496 kts | 36° |
| 2026-05-07 15:22 | 13.69870 | 114.24357 | 30916 ft | 496 kts | 36° |
| 2026-05-07 15:22 | 13.75442 | 114.28543 | 30918 ft | 495 kts | 36° |
| 2026-05-07 15:23 | 13.81007 | 114.32729 | 30916 ft | 496 kts | 36° |
| 2026-05-07 15:23 | 13.86574 | 114.36920 | 30917 ft | 496 kts | 36° |
| 2026-05-07 15:24 | 13.92139 | 114.41109 | 30917 ft | 496 kts | 36° |
| 2026-05-07 15:24 | 13.97625 | 114.45408 | 30913 ft | 496 kts | 40° |
| 2026-05-07 15:25 | 14.02460 | 114.50487 | 30913 ft | 496 kts | 46° |
| 2026-05-07 15:25 | 14.07162 | 114.55690 | 30917 ft | 497 kts | 46° |
| 2026-05-07 15:26 | 14.11896 | 114.60889 | 30916 ft | 497 kts | 46° |
| 2026-05-07 15:26 | 14.16646 | 114.66072 | 30918 ft | 498 kts | 46° |
| 2026-05-07 15:27 | 14.21403 | 114.71260 | 30918 ft | 498 kts | 46° |
| 2026-05-07 15:27 | 14.26160 | 114.76451 | 30916 ft | 498 kts | 46° |
| 2026-05-07 15:28 | 14.30919 | 114.81649 | 30915 ft | 498 kts | 46° |
| 2026-05-07 15:28 | 14.35668 | 114.86840 | 30918 ft | 497 kts | 46° |
| 2026-05-07 15:29 | 14.40415 | 114.92034 | 30915 ft | 497 kts | 46° |
| 2026-05-07 15:29 | 14.45154 | 114.97223 | 30921 ft | 497 kts | 46° |
| 2026-05-07 15:30 | 14.49868 | 115.02389 | 30915 ft | 497 kts | 46° |
| 2026-05-07 15:30 | 14.54611 | 115.07587 | 30917 ft | 497 kts | 46° |
| 2026-05-07 15:31 | 14.59352 | 115.12785 | 30916 ft | 497 kts | 46° |
| 2026-05-07 15:31 | 14.64090 | 115.17987 | 30922 ft | 497 kts | 46° |
| 2026-05-07 15:32 | 14.68823 | 115.23185 | 30927 ft | 497 kts | 46° |
| 2026-05-07 15:32 | 14.73557 | 115.28387 | 30925 ft | 497 kts | 46° |
| 2026-05-07 15:33 | 14.78291 | 115.33599 | 30930 ft | 497 kts | 46° |
| 2026-05-07 15:33 | 14.83023 | 115.38803 | 30926 ft | 497 kts | 46° |
| 2026-05-07 15:34 | 14.87760 | 115.44016 | 30926 ft | 497 kts | 46° |
| 2026-05-07 15:34 | 14.92491 | 115.49233 | 30925 ft | 497 kts | 46° |
| 2026-05-07 15:35 | 14.97226 | 115.54454 | 30927 ft | 497 kts | 46° |
| 2026-05-07 15:35 | 15.01950 | 115.59671 | 30926 ft | 498 kts | 46° |
| 2026-05-07 15:36 | 15.06689 | 115.64905 | 30925 ft | 498 kts | 46° |
| 2026-05-07 15:36 | 15.11415 | 115.70122 | 30924 ft | 495 kts | 46° |
| 2026-05-07 15:37 | 15.16117 | 115.75325 | 30928 ft | 496 kts | 46° |
| 2026-05-07 15:37 | 15.20845 | 115.80561 | 30928 ft | 498 kts | 46° |
| 2026-05-07 15:38 | 15.25587 | 115.85812 | 30926 ft | 500 kts | 46° |
| 2026-05-07 15:38 | 15.30333 | 115.91069 | 30916 ft | 500 kts | 46° |
| 2026-05-07 15:39 | 15.34273 | 115.95445 | 30916 ft | 499 kts | 46° |
| 2026-05-07 15:39 | 15.39005 | 116.00693 | 30915 ft | 498 kts | 46° |
| 2026-05-07 15:40 | 15.44502 | 116.06796 | 30917 ft | 497 kts | 46° |
| 2026-05-07 15:40 | 15.48454 | 116.11187 | 30916 ft | 496 kts | 46° |
| 2026-05-07 15:41 | 15.53160 | 116.16423 | 30918 ft | 496 kts | 46° |
| 2026-05-07 15:41 | 15.57864 | 116.21656 | 30916 ft | 496 kts | 46° |
| 2026-05-07 15:42 | 15.62531 | 116.26858 | 30915 ft | 496 kts | 46° |
| 2026-05-07 15:42 | 15.67232 | 116.32101 | 30917 ft | 496 kts | 46° |
| 2026-05-07 15:43 | 15.71930 | 116.37339 | 30917 ft | 496 kts | 46° |
| 2026-05-07 15:43 | 15.76632 | 116.42584 | 30918 ft | 496 kts | 46° |
| 2026-05-07 15:44 | 15.81331 | 116.47833 | 30917 ft | 497 kts | 46° |
| 2026-05-07 15:44 | 15.86037 | 116.53090 | 30920 ft | 497 kts | 46° |
| 2026-05-07 15:45 | 15.90742 | 116.58359 | 30916 ft | 497 kts | 46° |
| 2026-05-07 15:45 | 15.95445 | 116.63625 | 30916 ft | 497 kts | 46° |
| 2026-05-07 15:46 | 16.02498 | 116.71527 | 30918 ft | 497 kts | 46° |
| 2026-05-07 15:47 | 16.07196 | 116.76796 | 30918 ft | 497 kts | 46° |
| 2026-05-07 15:47 | 16.11896 | 116.82069 | 30918 ft | 497 kts | 46° |
| 2026-05-07 15:48 | 16.16598 | 116.87351 | 30911 ft | 497 kts | 46° |
| 2026-05-07 15:48 | 16.21299 | 116.92639 | 30909 ft | 498 kts | 46° |
| 2026-05-07 15:49 | 16.26001 | 116.97928 | 30906 ft | 498 kts | 46° |
| 2026-05-07 15:49 | 16.30701 | 117.03216 | 30908 ft | 497 kts | 46° |
| 2026-05-07 15:50 | 16.33047 | 117.05861 | 30909 ft | 497 kts | 46° |